Sao Raimundo das Mangabeiras, Brazil
Current Conditions -  °F | °C
As of 5:00 PM on Friday 28 Nov 2014 (Local Time) from SBIZ Reporting Station
Few Clouds Few Clouds  
Wind Chill: 93°   Ceiling: Unl
Heat Index: 103°   Visibility: 6mi
Dew Point: 73°   Wind: 6mph
Humidity: 52%   Direction: 260°W
Pressure: 29.8"   Gusts: NA
Location:  7.02°S, 45.48°W
Report Text: SBIZ 282000Z 26005KT 9999 FEW020 34/23 Q1009
Loading
Personal Weather Stations






























Interactive Weather Map New forecast layout! Learn more

10-Day Weather Forecast

Advertisements
Track Severe Weather on mobile